Time;durP1;ratioP1;P1;durP2;ratioP2;P2;SDS_P1;SDS_P2;PMS_P1;PMS_P2;Temp;Humidity;BMP_temperature;BMP_pressure;BME280_temperature;BME280_humidity;BME280_pressure;Samples;Min_cycle;Max_cycle;Signal;HPM_P1;HPM_P2
2021/04/23 00:14:34;;;;;;;0.10;0.10;;;;;;;;;;5127676;27;20384;-51
2021/04/23 00:17:01;;;;;;;0.10;0.10;;;;;;;;;;5105069;28;20039;-54
2021/04/23 00:19:28;;;;;;;0.25;0.25;;;;;;;;;;5109183;28;20023;-51
2021/04/23 00:21:55;;;;;;;0.10;0.10;;;;;;;;;;5108882;28;20485;-51
2021/04/23 00:24:22;;;;;;;0.15;0.15;;;;;;;;;;5108673;28;20032;-50
2021/04/23 00:26:48;;;;;;;0.95;0.20;;;;;;;;;;5108996;28;20106;-50
2021/04/23 00:29:15;;;;;;;0.10;0.10;;;;;;;;;;5107606;28;20081;-56
2021/04/23 00:31:41;;;;;;;0.10;0.10;;;;;;;;;;5106800;28;20040;-52
2021/04/23 00:34:07;;;;;;;0.10;0.10;;;;;;;;;;5108480;28;20550;-52
2021/04/23 00:36:34;;;;;;;0.20;0.20;;;;;;;;;;5108784;28;20023;-51
2021/04/23 00:39:00;;;;;;;0.10;0.10;;;;;;;;;;5108881;28;20362;-52
2021/04/23 00:41:32;;;;;;;0.50;0.50;;;;;;;;;;5108753;28;20027;-50
2021/04/23 00:43:58;;;;;;;0.15;0.15;;;;;;;;;;5104329;28;20040;-51
2021/04/23 00:46:31;;;;;;;0.10;0.10;;;;;;;;;;5108502;28;20060;-51
2021/04/23 00:48:57;;;;;;;0.10;0.10;;;;;;;;;;5108177;28;20032;-54
2021/04/23 00:51:27;;;;;;;0.10;0.10;;;;;;;;;;5107380;28;20500;-51
2021/04/23 00:53:54;;;;;;;0.20;0.20;;;;;;;;;;5107042;28;20137;-52
2021/04/23 00:56:21;;;;;;;0.10;0.10;;;;;;;;;;5108519;28;20038;-50
2021/04/23 00:58:48;;;;;;;0.10;0.10;;;;;;;;;;5108272;28;20081;-52
2021/04/23 01:01:16;;;;;;;0.10;0.10;;;;;;;;;;5108026;28;20485;-50
2021/04/23 01:03:43;;;;;;;0.10;0.10;;;;;;;;;;5107472;28;20027;-51
2021/04/23 01:06:17;;;;;;;0.10;0.10;;;;;;;;;;5108225;28;20066;-52
2021/04/23 01:08:44;;;;;;;0.10;0.10;;;;;;;;;;5108116;28;20042;-50
2021/04/23 01:11:10;;;;;;;0.10;0.10;;;;;;;;;;5107558;28;20483;-51
2021/04/23 01:13:37;;;;;;;0.10;0.10;;;;;;;;;;5103770;28;20102;-51
2021/04/23 01:16:05;;;;;;;0.13;0.13;;;;;;;;;;5093007;28;20032;-54
2021/04/23 01:18:31;;;;;;;0.10;0.10;;;;;;;;;;5093072;28;20093;-51
2021/04/23 01:21:08;;;;;;;0.10;0.10;;;;;;;;;;5093522;28;20024;-50
2021/04/23 01:23:35;;;;;;;0.05;0.05;;;;;;;;;;5078165;28;20036;-51
2021/04/23 01:26:03;;;;;;;0.10;0.10;;;;;;;;;;5093712;28;20035;-51
2021/04/23 01:28:29;;;;;;;0.10;0.10;;;;;;;;;;5093492;28;20047;-53
2021/04/23 01:30:56;;;;;;;0.10;0.10;;;;;;;;;;5093181;28;20028;-52
2021/04/23 01:33:23;;;;;;;0.10;0.10;;;;;;;;;;5093194;28;21949;-52
2021/04/23 01:35:49;;;;;;;0.10;0.10;;;;;;;;;;5093247;28;20046;-50
2021/04/23 01:38:15;;;;;;;1.00;1.00;;;;;;;;;;5093365;28;20029;-52
2021/04/23 01:40:42;;;;;;;0.10;0.10;;;;;;;;;;5089630;28;20059;-51
2021/04/23 01:43:08;;;;;;;0.10;0.10;;;;;;;;;;5093202;28;20036;-54
2021/04/23 01:45:34;;;;;;;0.10;0.10;;;;;;;;;;5092784;28;20026;-51
2021/04/23 01:48:00;;;;;;;0.08;0.08;;;;;;;;;;5093371;28;20130;-51
2021/04/23 01:50:27;;;;;;;0.10;0.10;;;;;;;;;;5093175;28;20020;-51
2021/04/23 01:52:53;;;;;;;0.10;0.10;;;;;;;;;;5093575;28;20032;-50
2021/04/23 01:55:21;;;;;;;0.10;0.10;;;;;;;;;;5091291;28;20443;-51
2021/04/23 01:57:48;;;;;;;0.10;0.10;;;;;;;;;;5092870;28;20062;-51
2021/04/23 02:00:18;;;;;;;0.10;0.10;;;;;;;;;;5092298;28;20461;-55
2021/04/23 02:02:44;;;;;;;0.10;0.10;;;;;;;;;;5092734;28;20094;-50
2021/04/23 02:05:11;;;;;;;0.10;0.10;;;;;;;;;;5092833;28;20500;-50
2021/04/23 02:07:37;;;;;;;0.10;0.10;;;;;;;;;;5093344;28;20020;-51
2021/04/23 02:10:05;;;;;;;0.10;0.10;;;;;;;;;;5087242;28;20160;-50
2021/04/23 02:12:32;;;;;;;0.10;0.10;;;;;;;;;;5086658;28;20063;-55
2021/04/23 02:14:58;;;;;;;0.10;0.10;;;;;;;;;;5092557;28;20060;-52
2021/04/23 02:17:24;;;;;;;0.13;0.13;;;;;;;;;;5092317;28;20047;-52
2021/04/23 02:19:50;;;;;;;0.10;0.10;;;;;;;;;;5088741;28;20027;-50
2021/04/23 02:22:16;;;;;;;0.10;0.10;;;;;;;;;;5092394;28;20028;-51
2021/04/23 02:24:42;;;;;;;0.10;0.10;;;;;;;;;;5092216;28;20031;-51
2021/04/23 02:27:08;;;;;;;0.10;0.10;;;;;;;;;;5091377;28;20031;-51
2021/04/23 02:29:35;;;;;;;0.20;0.20;;;;;;;;;;5092006;28;20012;-53
2021/04/23 02:32:01;;;;;;;0.20;0.20;;;;;;;;;;5092776;28;20401;-51
2021/04/23 02:34:28;;;;;;;0.20;0.20;;;;;;;;;;5092387;28;20031;-51
2021/04/23 02:36:54;;;;;;;0.20;0.20;;;;;;;;;;5092298;28;20047;-50
2021/04/23 02:39:20;;;;;;;0.20;0.20;;;;;;;;;;5092027;28;20031;-52
2021/04/23 02:41:49;;;;;;;0.10;0.10;;;;;;;;;;5092322;28;20020;-54
2021/04/23 02:44:16;;;;;;;0.75;0.75;;;;;;;;;;5091719;28;20028;-51
2021/04/23 02:46:43;;;;;;;0.10;0.10;;;;;;;;;;5088255;28;20031;-54
2021/04/23 02:49:10;;;;;;;0.10;0.10;;;;;;;;;;5091866;28;20020;-52
2021/04/23 02:51:37;;;;;;;0.10;0.10;;;;;;;;;;5091821;28;20051;-51
2021/04/23 02:54:04;;;;;;;0.10;0.10;;;;;;;;;;5091949;28;20020;-52
2021/04/23 02:56:30;;;;;;;0.10;0.10;;;;;;;;;;5091989;28;20024;-50
2021/04/23 02:58:57;;;;;;;0.10;0.10;;;;;;;;;;5087807;28;20512;-50
2021/04/23 03:01:25;;;;;;;0.10;0.10;;;;;;;;;;5091347;28;20058;-51
2021/04/23 03:03:51;;;;;;;0.10;0.10;;;;;;;;;;5091356;28;20429;-51
2021/04/23 03:06:17;;;;;;;0.10;0.10;;;;;;;;;;5091561;28;20035;-51
2021/04/23 03:08:44;;;;;;;0.20;0.20;;;;;;;;;;5091524;28;20023;-50
2021/04/23 03:11:16;;;;;;;0.10;0.10;;;;;;;;;;5090468;28;20039;-52
2021/04/23 03:13:44;;;;;;;0.20;0.20;;;;;;;;;;5089844;28;20316;-50
2021/04/23 03:16:11;;;;;;;0.10;0.10;;;;;;;;;;5091398;28;20035;-51
2021/04/23 03:18:38;;;;;;;0.10;0.10;;;;;;;;;;5091237;28;20047;-51
2021/04/23 03:21:05;;;;;;;0.10;0.10;;;;;;;;;;5091150;28;20059;-51
2021/04/23 03:23:31;;;;;;;0.10;0.10;;;;;;;;;;5091215;28;20059;-50
2021/04/23 03:26:01;;;;;;;0.17;0.17;;;;;;;;;;5092309;28;20105;-50
2021/04/23 03:28:28;;;;;;;0.20;0.20;;;;;;;;;;5091088;28;20031;-50
2021/04/23 03:30:54;;;;;;;0.10;0.10;;;;;;;;;;5090983;28;20505;-50
2021/04/23 03:33:21;;;;;;;0.10;0.10;;;;;;;;;;5091157;28;20040;-53
2021/04/23 03:35:50;;;;;;;0.10;0.10;;;;;;;;;;5091174;28;20018;-51
2021/04/23 03:38:17;;;;;;;0.10;0.10;;;;;;;;;;5090953;28;20107;-51
2021/04/23 03:40:44;;;;;;;0.10;0.10;;;;;;;;;;5087421;28;20046;-50
2021/04/23 03:43:10;;;;;;;0.20;0.20;;;;;;;;;;5090488;28;20109;-51
2021/04/23 03:45:36;;;;;;;2.53;0.77;;;;;;;;;;5090987;28;20028;-51
2021/04/23 03:48:03;;;;;;;0.10;0.10;;;;;;;;;;5090945;28;20028;-51
2021/04/23 03:50:31;;;;;;;0.10;0.10;;;;;;;;;;5075355;28;20446;-51
2021/04/23 03:52:58;;;;;;;0.20;0.20;;;;;;;;;;5086752;28;20038;-51
2021/04/23 03:55:30;;;;;;;0.10;0.10;;;;;;;;;;5089043;28;20052;-51
2021/04/23 03:57:57;;;;;;;0.10;0.10;;;;;;;;;;5090636;28;20031;-52
2021/04/23 04:00:34;;;;;;;0.30;0.30;;;;;;;;;;5091136;28;20417;-51
2021/04/23 04:03:01;;;;;;;0.10;0.10;;;;;;;;;;5090855;28;20048;-50
2021/04/23 04:05:27;;;;;;;0.10;0.10;;;;;;;;;;5090279;28;20039;-52
2021/04/23 04:07:53;;;;;;;1.25;0.82;;;;;;;;;;5086650;28;20067;-52
2021/04/23 04:10:19;;;;;;;0.10;0.10;;;;;;;;;;5090910;28;20478;-51
2021/04/23 04:12:47;;;;;;;0.20;0.20;;;;;;;;;;5090076;28;20437;-52
2021/04/23 04:15:14;;;;;;;0.15;0.15;;;;;;;;;;5090599;28;20031;-50
2021/04/23 04:17:40;;;;;;;0.15;0.15;;;;;;;;;;5090762;28;20028;-52
2021/04/23 04:20:07;;;;;;;0.10;0.10;;;;;;;;;;5091081;28;20029;-53
2021/04/23 04:22:34;;;;;;;0.10;0.10;;;;;;;;;;5089963;28;20083;-51
2021/04/23 04:25:00;;;;;;;0.10;0.10;;;;;;;;;;5090393;28;20020;-51
2021/04/23 04:27:26;;;;;;;0.10;0.10;;;;;;;;;;5090619;28;20031;-53
2021/04/23 04:29:52;;;;;;;1.50;1.10;;;;;;;;;;5086471;28;20039;-51
2021/04/23 04:32:18;;;;;;;0.10;0.10;;;;;;;;;;5090371;28;20501;-51
2021/04/23 04:34:45;;;;;;;0.20;0.20;;;;;;;;;;5090855;28;20031;-51
2021/04/23 04:37:11;;;;;;;0.10;0.10;;;;;;;;;;5063015;28;20040;-52
2021/04/23 04:39:37;;;;;;;0.15;0.15;;;;;;;;;;5083377;28;20400;-51
2021/04/23 04:42:04;;;;;;;0.20;0.20;;;;;;;;;;5090144;28;20115;-54
2021/04/23 04:44:30;;;;;;;0.17;0.17;;;;;;;;;;5090730;28;20516;-54
2021/04/23 04:46:57;;;;;;;0.10;0.10;;;;;;;;;;5086722;28;20067;-53
2021/04/23 04:49:23;;;;;;;0.20;0.20;;;;;;;;;;5088788;28;20026;-51
2021/04/23 04:51:49;;;;;;;0.52;0.25;;;;;;;;;;5094063;28;20089;-50
2021/04/23 04:54:15;;;;;;;0.10;0.10;;;;;;;;;;5086785;28;20089;-50
2021/04/23 04:56:42;;;;;;;0.60;0.60;;;;;;;;;;5094208;28;20119;-54
2021/04/23 04:59:08;;;;;;;0.17;0.17;;;;;;;;;;5094375;28;20550;-53
2021/04/23 05:01:34;;;;;;;0.10;0.10;;;;;;;;;;5093076;28;20077;-51
2021/04/23 05:04:00;;;;;;;0.15;0.15;;;;;;;;;;5092518;28;20489;-51
2021/04/23 05:06:26;;;;;;;0.17;0.17;;;;;;;;;;5093465;28;20028;-52
2021/04/23 05:08:52;;;;;;;0.20;0.20;;;;;;;;;;5093312;28;20466;-52
2021/04/23 05:11:18;;;;;;;3.20;3.00;;;;;;;;;;5093605;28;20032;-51
2021/04/23 05:13:44;;;;;;;0.10;0.10;;;;;;;;;;5094079;28;20048;-51
2021/04/23 05:16:10;;;;;;;0.15;0.15;;;;;;;;;;5093317;28;20086;-51
2021/04/23 05:18:37;;;;;;;0.10;0.10;;;;;;;;;;5093700;28;20062;-52
2021/04/23 05:21:03;;;;;;;0.10;0.10;;;;;;;;;;5093404;28;20508;-53
2021/04/23 05:23:29;;;;;;;0.10;0.10;;;;;;;;;;5076889;28;20103;-50
2021/04/23 05:25:56;;;;;;;0.10;0.10;;;;;;;;;;5093650;28;20512;-52
2021/04/23 05:28:22;;;;;;;0.10;0.10;;;;;;;;;;5093073;28;20020;-50
2021/04/23 05:30:50;;;;;;;0.10;0.10;;;;;;;;;;5092949;28;20084;-55
2021/04/23 05:33:16;;;;;;;0.10;0.10;;;;;;;;;;5092893;28;20047;-51
2021/04/23 05:35:42;;;;;;;0.10;0.10;;;;;;;;;;5093005;28;20021;-50
2021/04/23 05:38:11;;;;;;;0.30;0.30;;;;;;;;;;5092701;28;20024;-51
2021/04/23 05:40:45;;;;;;;0.10;0.10;;;;;;;;;;5093772;28;20484;-50
2021/04/23 05:43:12;;;;;;;0.10;0.10;;;;;;;;;;5092998;28;20520;-50
2021/04/23 05:45:40;;;;;;;0.10;0.10;;;;;;;;;;5092694;28;20016;-51
2021/04/23 05:48:06;;;;;;;0.10;0.10;;;;;;;;;;5092556;28;20078;-51
2021/04/23 05:50:33;;;;;;;0.52;0.52;;;;;;;;;;5092796;28;20049;-50
2021/04/23 05:52:59;;;;;;;0.15;0.15;;;;;;;;;;5092915;28;20436;-54
2021/04/23 05:55:25;;;;;;;0.73;0.73;;;;;;;;;;5092626;28;20095;-49
2021/04/23 05:57:53;;;;;;;0.10;0.10;;;;;;;;;;5092413;28;20020;-51
2021/04/23 06:00:20;;;;;;;0.20;0.20;;;;;;;;;;5092437;28;20484;-51
2021/04/23 06:02:50;;;;;;;0.17;0.17;;;;;;;;;;5092465;28;20063;-51
2021/04/23 06:05:17;;;;;;;0.10;0.10;;;;;;;;;;5092573;28;20067;-51
2021/04/23 06:07:44;;;;;;;0.10;0.10;;;;;;;;;;5092946;28;20028;-57
2021/04/23 06:10:10;;;;;;;0.20;0.20;;;;;;;;;;5084865;28;20028;-51
2021/04/23 06:12:37;;;;;;;5.93;3.83;;;;;;;;;;5089161;28;20090;-50
2021/04/23 06:15:04;;;;;;;0.10;0.10;;;;;;;;;;5080484;28;20035;-50
2021/04/23 06:17:30;;;;;;;0.10;0.10;;;;;;;;;;5082938;28;20024;-51
2021/04/23 06:19:56;;;;;;;0.10;0.10;;;;;;;;;;5078415;28;20039;-50
2021/04/23 06:22:23;;;;;;;0.15;0.15;;;;;;;;;;5089297;28;20043;-50
2021/04/23 06:24:49;;;;;;;0.10;0.10;;;;;;;;;;5086176;28;20035;-52
2021/04/23 06:27:16;;;;;;;0.20;0.20;;;;;;;;;;5087801;28;20080;-50
2021/04/23 06:29:43;;;;;;;0.10;0.10;;;;;;;;;;5083665;28;20020;-50
2021/04/23 06:32:09;;;;;;;0.13;0.13;;;;;;;;;;5083814;28;20025;-51
2021/04/23 06:34:36;;;;;;;0.10;0.10;;;;;;;;;;5085816;28;20071;-52
2021/04/23 06:37:02;;;;;;;0.15;0.15;;;;;;;;;;5086289;28;20035;-52
2021/04/23 06:39:28;;;;;;;0.10;0.10;;;;;;;;;;5087437;28;20020;-50
2021/04/23 06:41:54;;;;;;;0.10;0.10;;;;;;;;;;5085400;28;20098;-52
2021/04/23 06:44:21;;;;;;;0.00;0.00;;;;;;;;;;5083308;28;20055;-51
2021/04/23 06:46:47;;;;;;;0.20;0.20;;;;;;;;;;5086371;28;20051;-50
2021/04/23 06:49:13;;;;;;;0.10;0.10;;;;;;;;;;5085851;28;20055;-50
2021/04/23 06:51:40;;;;;;;0.10;0.10;;;;;;;;;;5085288;28;20027;-50
2021/04/23 06:54:06;;;;;;;4.13;0.32;;;;;;;;;;5087315;28;20482;-53
2021/04/23 06:56:32;;;;;;;0.15;0.15;;;;;;;;;;5081479;28;20496;-53
2021/04/23 06:58:58;;;;;;;1.65;0.75;;;;;;;;;;5085430;28;20027;-50
2021/04/23 07:01:24;;;;;;;0.35;0.35;;;;;;;;;;5085815;28;20413;-50
2021/04/23 07:03:53;;;;;;;0.10;0.10;;;;;;;;;;5081254;28;20037;-50
2021/04/23 07:06:20;;;;;;;3.72;2.40;;;;;;;;;;5088696;28;20027;-51
2021/04/23 07:08:46;;;;;;;0.30;0.30;;;;;;;;;;5086334;28;20020;-50
2021/04/23 07:11:13;;;;;;;1.00;0.40;;;;;;;;;;5089798;28;20028;-53
2021/04/23 07:13:39;;;;;;;0.10;0.10;;;;;;;;;;5085274;28;20044;-50
2021/04/23 07:16:05;;;;;;;0.20;0.20;;;;;;;;;;5086140;28;20036;-49
2021/04/23 07:18:31;;;;;;;0.50;0.50;;;;;;;;;;5083863;28;20046;-49
2021/04/23 07:20:57;;;;;;;0.20;0.20;;;;;;;;;;5084104;28;20039;-50
2021/04/23 07:23:23;;;;;;;1.42;1.33;;;;;;;;;;5080294;28;20028;-49
2021/04/23 07:25:50;;;;;;;0.80;0.40;;;;;;;;;;5081942;28;20044;-50
2021/04/23 07:28:16;;;;;;;0.10;0.10;;;;;;;;;;5083031;28;20406;-49
2021/04/23 07:30:43;;;;;;;0.10;0.10;;;;;;;;;;5083069;28;20024;-52
2021/04/23 07:33:12;;;;;;;0.10;0.10;;;;;;;;;;5082306;28;20024;-50
2021/04/23 07:35:38;;;;;;;0.10;0.10;;;;;;;;;;5081890;28;20012;-52
2021/04/23 07:38:05;;;;;;;2.85;0.85;;;;;;;;;;5082078;28;20492;-54
2021/04/23 07:40:31;;;;;;;0.10;0.10;;;;;;;;;;5083985;28;20477;-50
2021/04/23 07:43:00;;;;;;;1.17;0.90;;;;;;;;;;5081953;28;20435;-51
2021/04/23 07:45:26;;;;;;;0.00;0.00;;;;;;;;;;5083921;28;20089;-50
2021/04/23 07:47:52;;;;;;;0.10;0.10;;;;;;;;;;5082648;28;20036;-51
2021/04/23 07:50:19;;;;;;;0.00;0.00;;;;;;;;;;5082535;28;20024;-50
2021/04/23 07:52:45;;;;;;;0.10;0.10;;;;;;;;;;5083127;28;20066;-50
2021/04/23 07:55:12;;;;;;;7.68;1.08;;;;;;;;;;5085457;28;20027;-49
2021/04/23 07:57:38;;;;;;;0.10;0.10;;;;;;;;;;5084883;28;20111;-50
2021/04/23 08:00:09;;;;;;;1.52;0.75;;;;;;;;;;5083348;28;20542;-53
2021/04/23 08:02:41;;;;;;;0.10;0.10;;;;;;;;;;5084680;28;20390;-50
2021/04/23 08:05:08;;;;;;;0.10;0.10;;;;;;;;;;5081965;28;20027;-50
2021/04/23 08:07:34;;;;;;;5.15;0.32;;;;;;;;;;5084471;28;20152;-52
2021/04/23 08:10:00;;;;;;;1.48;1.38;;;;;;;;;;5085325;28;20035;-50
2021/04/23 08:12:27;;;;;;;0.30;0.30;;;;;;;;;;5079505;28;20040;-50
2021/04/23 08:14:53;;;;;;;0.00;0.00;;;;;;;;;;5081286;28;20107;-52
2021/04/23 08:17:19;;;;;;;0.10;0.10;;;;;;;;;;5081063;28;20036;-53
2021/04/23 08:19:45;;;;;;;2.22;0.28;;;;;;;;;;5076003;28;20033;-52
2021/04/23 08:22:11;;;;;;;0.47;0.47;;;;;;;;;;5082456;28;20055;-54
2021/04/23 08:24:37;;;;;;;0.30;0.20;;;;;;;;;;5087564;28;20504;-50
2021/04/23 08:27:04;;;;;;;0.15;0.15;;;;;;;;;;5083791;28;20027;-51
2021/04/23 08:29:30;;;;;;;1.48;1.38;;;;;;;;;;5085587;28;20465;-50
2021/04/23 08:31:56;;;;;;;2.28;2.13;;;;;;;;;;5085926;28;20078;-51
2021/04/23 08:34:22;;;;;;;1.88;0.85;;;;;;;;;;5093360;28;20063;-50
2021/04/23 08:36:48;;;;;;;2.08;1.25;;;;;;;;;;5092966;28;20030;-53
2021/04/23 08:39:14;;;;;;;4.55;1.05;;;;;;;;;;5088654;28;20503;-50
2021/04/23 08:41:41;;;;;;;0.47;0.47;;;;;;;;;;5089180;28;20052;-51
2021/04/23 08:44:08;;;;;;;0.20;0.20;;;;;;;;;;5092218;28;20040;-52
2021/04/23 08:46:35;;;;;;;0.10;0.10;;;;;;;;;;5082692;28;20063;-50
2021/04/23 08:49:02;;;;;;;0.10;0.10;;;;;;;;;;5090841;28;20040;-51
2021/04/23 08:51:29;;;;;;;0.30;0.30;;;;;;;;;;5090411;28;20008;-50
2021/04/23 08:53:56;;;;;;;0.10;0.10;;;;;;;;;;5091360;28;20032;-52
2021/04/23 08:56:22;;;;;;;0.43;0.43;;;;;;;;;;5085217;28;20070;-50
2021/04/23 08:58:48;;;;;;;0.10;0.10;;;;;;;;;;5086482;28;20059;-50
2021/04/23 09:01:15;;;;;;;0.30;0.20;;;;;;;;;;5079549;28;20558;-50
2021/04/23 09:03:41;;;;;;;1.25;1.15;;;;;;;;;;5081349;28;20036;-51
2021/04/23 09:06:18;;;;;;;0.00;0.00;;;;;;;;;;5083703;28;20023;-54
2021/04/23 09:08:54;;;;;;;0.10;0.10;;;;;;;;;;5088149;28;20409;-52
2021/04/23 09:11:22;;;;;;;0.30;0.25;;;;;;;;;;5080576;28;20032;-52
2021/04/23 09:13:52;;;;;;;0.00;0.00;;;;;;;;;;5084347;28;20047;-50
2021/04/23 09:16:19;;;;;;;9.45;1.13;;;;;;;;;;5081417;28;20520;-59
2021/04/23 09:18:45;;;;;;;0.98;0.98;;;;;;;;;;5083399;28;20028;-52
2021/04/23 09:21:14;;;;;;;0.40;0.40;;;;;;;;;;5085226;28;20397;-57
2021/04/23 09:23:51;;;;;;;0.10;0.10;;;;;;;;;;5081874;28;20493;-53
2021/04/23 09:26:51;;;;;;;0.25;0.25;;;;;;;;;;5083033;28;20548;-53
2021/04/23 09:29:25;;;;;;;9.07;2.85;;;;;;;;;;4999815;28;20415;-54
2021/04/23 09:31:51;;;;;;;0.10;0.10;;;;;;;;;;4990312;28;20191;-52
2021/04/23 09:34:18;;;;;;;0.22;0.20;;;;;;;;;;5001724;28;20032;-51
2021/04/23 09:36:46;;;;;;;0.20;0.20;;;;;;;;;;5001995;28;20126;-51
2021/04/23 09:39:13;;;;;;;0.00;0.00;;;;;;;;;;5003083;28;20080;-59
2021/04/23 09:41:40;;;;;;;0.10;0.10;;;;;;;;;;4986596;28;20579;-55
2021/04/23 09:44:32;;;;;;;2.03;0.63;;;;;;;;;;5000736;28;20038;-53
2021/04/23 09:47:00;;;;;;;4.18;2.47;;;;;;;;;;4998998;28;20111;-53
2021/04/23 09:49:26;;;;;;;1.40;1.38;;;;;;;;;;5000563;28;20033;-53
2021/04/23 09:51:52;;;;;;;0.00;0.00;;;;;;;;;;4999597;28;20070;-53
2021/04/23 09:54:20;;;;;;;0.55;0.43;;;;;;;;;;5003373;28;20411;-56
2021/04/23 09:56:46;;;;;;;2.90;1.85;;;;;;;;;;4998617;28;20034;-51
2021/04/23 09:59:14;;;;;;;9.70;1.77;;;;;;;;;;5000625;28;20570;-54
2021/04/23 10:01:50;;;;;;;0.73;0.70;;;;;;;;;;4998158;28;20116;-53
2021/04/23 10:04:16;;;;;;;;;;;;;;;;;;5022859;28;20063;-55
2021/04/23 10:06:42;;;;;;;;;;;;;;;;;;5084028;28;19916;-51
2021/04/23 10:09:08;;;;;;;0.10;0.10;;;;;;;;;;5081313;28;19917;-51
2021/04/23 10:11:41;;;;;;;0.10;0.10;;;;;;;;;;5085099;28;20447;-53
2021/04/23 10:14:13;;;;;;;0.30;0.10;;;;;;;;;;5084134;28;20059;-54
2021/04/23 10:16:40;;;;;;;0.65;0.63;;;;;;;;;;5087062;28;20036;-50
2021/04/23 10:19:06;;;;;;;2.60;1.45;;;;;;;;;;5085013;28;20024;-53
2021/04/23 10:21:32;;;;;;;0.03;0.03;;;;;;;;;;5088100;28;20035;-51
2021/04/23 10:23:59;;;;;;;0.10;0.10;;;;;;;;;;5086331;28;20123;-49
2021/04/23 10:26:26;;;;;;;0.10;0.10;;;;;;;;;;5089052;28;20039;-53
2021/04/23 10:28:53;;;;;;;1.40;1.30;;;;;;;;;;5088803;28;20047;-51
2021/04/23 10:31:19;;;;;;;0.70;0.55;;;;;;;;;;5087049;28;20501;-55
2021/04/23 10:33:45;;;;;;;1.60;0.85;;;;;;;;;;5081654;28;20035;-54
2021/04/23 10:36:11;;;;;;;2.60;1.13;;;;;;;;;;5077341;28;20032;-53
2021/04/23 10:38:39;;;;;;;2.75;1.17;;;;;;;;;;5072926;28;20036;-52
2021/04/23 10:41:07;;;;;;;0.50;0.50;;;;;;;;;;5089966;28;20064;-52
2021/04/23 10:43:34;;;;;;;0.38;0.38;;;;;;;;;;5089321;28;20571;-51
2021/04/23 10:46:01;;;;;;;0.10;0.10;;;;;;;;;;5079418;28;20029;-51
2021/04/23 10:48:32;;;;;;;3.85;0.70;;;;;;;;;;5077504;28;20101;-52
2021/04/23 10:50:59;;;;;;;7.80;0.47;;;;;;;;;;5087497;28;20024;-54
2021/04/23 10:53:25;;;;;;;3.85;1.65;;;;;;;;;;5087918;28;20093;-53
2021/04/23 10:55:53;;;;;;;4.63;0.35;;;;;;;;;;5083175;28;20123;-52
2021/04/23 10:58:22;;;;;;;0.17;0.17;;;;;;;;;;5089111;28;20037;-51
2021/04/23 11:00:49;;;;;;;1.45;0.95;;;;;;;;;;5090256;28;20020;-54
2021/04/23 11:03:21;;;;;;;0.20;0.20;;;;;;;;;;5090660;28;20036;-51
2021/04/23 11:05:51;;;;;;;0.10;0.10;;;;;;;;;;5091063;28;20020;-52
2021/04/23 11:08:17;;;;;;;0.47;0.47;;;;;;;;;;5090892;28;20559;-52
2021/04/23 11:13:29;;;;;;;0.00;0.00;;;;;;;;;;5087177;28;20044;-54
2021/04/23 11:16:13;;;;;;;0.10;0.10;;;;;;;;;;5088340;28;20484;-51
2021/04/23 11:18:39;;;;;;;0.00;0.00;;;;;;;;;;5090842;28;20455;-50
2021/04/23 11:21:24;;;;;;;0.10;0.10;;;;;;;;;;5090657;28;20048;-56
2021/04/23 11:24:09;;;;;;;0.10;0.10;;;;;;;;;;5079250;28;20048;-50
2021/04/23 11:26:57;;;;;;;0.43;0.43;;;;;;;;;;5080473;28;20055;-55
2021/04/23 11:29:23;;;;;;;0.20;0.20;;;;;;;;;;5083193;28;20039;-52
2021/04/23 11:32:08;;;;;;;6.03;3.08;;;;;;;;;;5075411;28;20076;-51
2021/04/23 11:34:40;;;;;;;0.00;0.00;;;;;;;;;;5073381;28;20048;-52
2021/04/23 11:37:08;;;;;;;0.10;0.10;;;;;;;;;;5072331;28;20282;-51
2021/04/23 11:39:41;;;;;;;0.50;0.35;;;;;;;;;;5079828;28;20479;-56
2021/04/23 11:42:22;;;;;;;0.20;0.20;;;;;;;;;;5080712;28;20024;-51
2021/04/23 11:44:50;;;;;;;0.10;0.10;;;;;;;;;;5074587;28;20147;-51
2021/04/23 11:47:17;;;;;;;1.77;0.90;;;;;;;;;;5078781;28;20027;-54
2021/04/23 11:49:43;;;;;;;0.00;0.00;;;;;;;;;;5080123;28;20033;-54
2021/04/23 11:52:10;;;;;;;5.28;3.80;;;;;;;;;;5081259;28;20020;-54
2021/04/23 11:54:45;;;;;;;0.20;0.20;;;;;;;;;;5080470;28;20024;-54
2021/04/23 11:57:12;;;;;;;3.40;2.70;;;;;;;;;;5080585;28;20028;-53
2021/04/23 11:59:56;;;;;;;4.05;0.47;;;;;;;;;;5074990;28;20390;-55
2021/04/23 12:02:40;;;;;;;8.82;8.27;;;;;;;;;;5067507;28;20051;-53
2021/04/23 12:05:08;;;;;;;10.40;1.80;;;;;;;;;;5085735;28;20478;-54
2021/04/23 12:07:40;;;;;;;0.05;0.05;;;;;;;;;;5084230;28;20028;-55
2021/04/23 12:10:08;;;;;;;0.43;0.43;;;;;;;;;;5081599;28;20114;-56
2021/04/23 12:12:34;;;;;;;2.85;1.48;;;;;;;;;;5082357;28;20086;-53
2021/04/23 12:15:00;;;;;;;0.00;0.00;;;;;;;;;;5083330;28;20024;-50
2021/04/23 12:17:26;;;;;;;4.78;2.58;;;;;;;;;;5080571;28;20063;-51
2021/04/23 12:19:52;;;;;;;0.20;0.20;;;;;;;;;;5081249;28;20020;-50
2021/04/23 12:22:18;;;;;;;10.13;9.68;;;;;;;;;;5077532;28;20031;-55
2021/04/23 12:24:44;;;;;;;1.83;0.55;;;;;;;;;;5078829;28;20034;-54
2021/04/23 12:27:10;;;;;;;0.88;0.43;;;;;;;;;;5073542;28;20024;-54
2021/04/23 12:29:36;;;;;;;0.20;0.20;;;;;;;;;;5080381;28;20047;-53
2021/04/23 12:32:02;;;;;;;0.52;0.52;;;;;;;;;;5082009;28;20031;-54
2021/04/23 12:34:28;;;;;;;1.38;0.43;;;;;;;;;;5082049;28;20032;-59
2021/04/23 12:36:55;;;;;;;0.00;0.00;;;;;;;;;;5080361;28;20115;-52
2021/04/23 12:39:22;;;;;;;0.20;0.20;;;;;;;;;;5080009;28;20024;-51
2021/04/23 12:41:50;;;;;;;0.13;0.13;;;;;;;;;;5083889;28;20027;-55
2021/04/23 12:44:21;;;;;;;1.70;0.63;;;;;;;;;;5081044;28;20063;-54
2021/04/23 12:46:47;;;;;;;0.95;0.95;;;;;;;;;;5085985;28;20447;-50
2021/04/23 12:49:13;;;;;;;1.02;0.93;;;;;;;;;;5082599;28;20031;-51
2021/04/23 12:51:51;;;;;;;7.28;1.88;;;;;;;;;;5079929;28;20032;-54
2021/04/23 12:54:18;;;;;;;0.45;0.30;;;;;;;;;;5082744;28;20456;-50
2021/04/23 12:56:52;;;;;;;4.03;0.90;;;;;;;;;;5076333;28;20051;-53
2021/04/23 12:59:37;;;;;;;1.65;1.55;;;;;;;;;;5080170;28;20024;-55
2021/04/23 13:02:04;;;;;;;0.30;0.30;;;;;;;;;;5083382;28;20056;-53
2021/04/23 13:04:30;;;;;;;1.65;1.02;;;;;;;;;;5083766;28;20525;-55
2021/04/23 13:07:08;;;;;;;4.63;3.08;;;;;;;;;;5082115;28;20028;-50
2021/04/23 13:09:34;;;;;;;4.00;1.02;;;;;;;;;;5081178;28;20028;-51
2021/04/23 13:12:16;;;;;;;4.05;1.60;;;;;;;;;;5087873;28;20077;-51
2021/04/23 13:14:43;;;;;;;0.47;0.30;;;;;;;;;;5074915;28;20069;-50
2021/04/23 13:17:10;;;;;;;4.25;2.35;;;;;;;;;;5088574;28;20064;-54
2021/04/23 13:19:38;;;;;;;3.03;0.90;;;;;;;;;;5086946;28;20044;-54
2021/04/23 13:22:42;;;;;;;1.75;1.65;;;;;;;;;;5086882;28;20024;-53
2021/04/23 13:25:11;;;;;;;1.08;1.08;;;;;;;;;;5028978;28;20037;-54
2021/04/23 13:27:58;;;;;;;1.75;1.17;;;;;;;;;;5021822;28;20037;-50
2021/04/23 13:30:36;;;;;;;2.53;1.75;;;;;;;;;;5015138;28;20410;-53
2021/04/23 13:33:05;;;;;;;31.90;2.22;;;;;;;;;;5029038;28;20053;-54
2021/04/23 13:35:44;;;;;;;5.63;3.20;;;;;;;;;;5027829;28;20030;-50
2021/04/23 13:38:17;;;;;;;0.25;0.22;;;;;;;;;;5031128;28;20517;-58
2021/04/23 13:40:43;;;;;;;2.53;1.75;;;;;;;;;;5023515;28;20025;-50
2021/04/23 13:43:10;;;;;;;5.05;1.60;;;;;;;;;;5024668;28;20125;-54
2021/04/23 13:45:39;;;;;;;34.97;2.38;;;;;;;;;;5028767;28;20120;-52
2021/04/23 13:48:16;;;;;;;4.97;1.30;;;;;;;;;;5028616;28;20584;-51
2021/04/23 13:50:42;;;;;;;0.63;0.63;;;;;;;;;;5020955;28;20051;-54
2021/04/23 13:53:08;;;;;;;1.38;1.38;;;;;;;;;;5036234;28;20083;-53
2021/04/23 13:55:34;;;;;;;0.00;0.00;;;;;;;;;;5052212;28;20040;-50
2021/04/23 13:58:07;;;;;;;2.80;1.73;;;;;;;;;;5082180;28;20046;-51
2021/04/23 14:00:58;;;;;;;4.65;1.02;;;;;;;;;;5081531;28;20074;-53
2021/04/23 14:03:24;;;;;;;0.38;0.10;;;;;;;;;;5086163;28;20035;-54
2021/04/23 14:05:50;;;;;;;1.80;1.75;;;;;;;;;;5091087;28;20490;-53
2021/04/23 14:08:16;;;;;;;0.60;0.60;;;;;;;;;;5091591;28;20032;-51
2021/04/23 14:10:43;;;;;;;0.00;0.00;;;;;;;;;;5091041;28;20020;-58
2021/04/23 14:13:10;;;;;;;3.20;1.35;;;;;;;;;;5087531;28;20044;-55
2021/04/23 14:15:36;;;;;;;2.58;1.50;;;;;;;;;;5091416;28;20020;-55
2021/04/23 14:18:02;;;;;;;0.00;0.00;;;;;;;;;;5091760;28;20031;-54
2021/04/23 14:20:28;;;;;;;4.90;0.80;;;;;;;;;;5091923;28;20032;-53
2021/04/23 14:22:55;;;;;;;0.47;0.47;;;;;;;;;;5092867;28;20028;-51
2021/04/23 14:25:21;;;;;;;0.68;0.68;;;;;;;;;;5091422;28;20397;-55
2021/04/23 14:27:47;;;;;;;2.25;2.13;;;;;;;;;;5091712;28;20028;-54
2021/04/23 14:30:14;;;;;;;3.53;1.00;;;;;;;;;;5091791;28;20028;-52
2021/04/23 14:32:41;;;;;;;1.05;0.98;;;;;;;;;;5091222;28;20066;-54
2021/04/23 14:35:07;;;;;;;7.20;1.02;;;;;;;;;;5091471;28;20092;-56
2021/04/23 14:37:33;;;;;;;1.08;1.00;;;;;;;;;;5091765;28;20367;-52
2021/04/23 14:39:59;;;;;;;0.73;0.57;;;;;;;;;;5089793;28;20528;-53
2021/04/23 14:42:25;;;;;;;9.40;1.25;;;;;;;;;;5086117;28;20069;-52
2021/04/23 14:44:52;;;;;;;1.27;1.17;;;;;;;;;;5085283;28;20061;-52
2021/04/23 14:47:20;;;;;;;1.25;0.88;;;;;;;;;;5082618;28;20086;-56
2021/04/23 14:49:46;;;;;;;0.90;0.90;;;;;;;;;;5077795;28;20055;-55
2021/04/23 14:52:12;;;;;;;1.60;0.55;;;;;;;;;;5082395;28;20060;-55
2021/04/23 14:54:38;;;;;;;3.47;3.28;;;;;;;;;;5087332;28;20039;-52
2021/04/23 14:57:04;;;;;;;0.10;0.08;;;;;;;;;;5082645;28;20016;-56
2021/04/23 14:59:30;;;;;;;1.27;1.17;;;;;;;;;;5088809;28;20066;-53
2021/04/23 15:01:56;;;;;;;0.10;0.10;;;;;;;;;;5080760;28;20028;-55
2021/04/23 15:04:24;;;;;;;1.38;1.35;;;;;;;;;;5082623;28;20043;-53